createdAt,value
2019-03-21T00:02:11.534Z,9.94
2019-03-21T00:04:44.111Z,9.94
2019-03-21T00:07:16.088Z,9.94
2019-03-21T00:10:16.599Z,9.93
2019-03-21T00:12:49.095Z,9.92
2019-03-21T00:15:32.062Z,9.92
2019-03-21T00:18:09.757Z,9.91
2019-03-21T00:20:41.858Z,9.89
2019-03-21T00:23:14.045Z,9.88
2019-03-21T00:25:46.107Z,9.93
2019-03-21T00:28:18.329Z,9.88
2019-03-21T00:30:50.298Z,9.86
2019-03-21T00:33:22.658Z,9.85
2019-03-21T00:35:55.091Z,9.82
2019-03-21T00:38:27.745Z,9.84
2019-03-21T00:40:59.694Z,9.79
2019-03-21T00:43:31.691Z,9.83
2019-03-21T00:46:03.834Z,9.81
2019-03-21T00:48:35.959Z,9.80
2019-03-21T00:51:08.107Z,9.80
2019-03-21T00:53:40.748Z,9.83
2019-03-21T00:56:12.587Z,9.76
2019-03-21T00:58:44.976Z,9.80
2019-03-21T01:01:17.144Z,9.75
2019-03-21T01:03:49.785Z,9.75
2019-03-21T01:06:21.983Z,9.72
2019-03-21T01:08:54.053Z,9.75
2019-03-21T01:11:27.156Z,9.74
2019-03-21T01:13:59.074Z,9.75
2019-03-21T01:16:31.144Z,9.69
2019-03-21T01:19:03.306Z,9.68
2019-03-21T01:21:36.491Z,9.72
2019-03-21T01:24:10.059Z,9.70
2019-03-21T01:26:42.000Z,9.69
2019-03-21T01:29:14.287Z,9.66
2019-03-21T01:31:46.441Z,9.70
2019-03-21T01:34:18.447Z,9.72
2019-03-21T01:36:50.501Z,9.66
2019-03-21T01:39:22.375Z,9.63
2019-03-21T01:41:54.487Z,9.62
2019-03-21T01:44:27.491Z,9.63
2019-03-21T01:46:59.617Z,9.59
2019-03-21T01:49:31.823Z,9.60
2019-03-21T01:52:03.705Z,9.59
2019-03-21T01:54:37.113Z,9.58
2019-03-21T01:57:08.986Z,9.59
2019-03-21T01:59:41.391Z,9.55
2019-03-21T02:02:13.474Z,9.53
2019-03-21T02:04:45.556Z,9.52
2019-03-21T02:07:17.537Z,9.50
2019-03-21T02:09:49.544Z,9.46
2019-03-21T02:12:23.645Z,9.49
2019-03-21T02:14:56.036Z,9.46
2019-03-21T02:17:27.980Z,9.46
2019-03-21T02:20:00.337Z,9.44
2019-03-21T02:22:32.704Z,9.42
2019-03-21T02:25:05.183Z,9.40
2019-03-21T02:27:37.533Z,9.39
2019-03-21T02:30:12.118Z,9.42
2019-03-21T02:32:44.186Z,9.39
2019-03-21T02:35:16.097Z,9.40
2019-03-21T02:37:48.944Z,9.40
2019-03-21T02:40:21.997Z,9.40
2019-03-21T02:42:54.219Z,9.34
2019-03-21T02:45:26.243Z,9.34
2019-03-21T02:47:58.202Z,9.32
2019-03-21T02:50:32.373Z,9.37
2019-03-21T02:53:04.566Z,9.34
2019-03-21T02:55:36.586Z,9.37
2019-03-21T02:58:08.711Z,9.34
2019-03-21T03:00:40.567Z,9.33
2019-03-21T03:03:12.645Z,9.36
2019-03-21T03:05:45.002Z,9.35
2019-03-21T03:08:16.960Z,9.39
2019-03-21T03:10:50.709Z,9.40
2019-03-21T03:13:23.008Z,9.40
2019-03-21T03:15:55.186Z,9.40
2019-03-21T03:18:27.321Z,9.38
2019-03-21T03:21:00.802Z,9.42
2019-03-21T03:23:32.996Z,9.41
2019-03-21T03:26:04.960Z,9.41
2019-03-21T03:28:37.118Z,9.43
2019-03-21T03:31:09.468Z,9.43
2019-03-21T03:33:41.681Z,9.43
2019-03-21T03:36:13.878Z,9.44
2019-03-21T03:38:46.118Z,9.45
2019-03-21T03:41:18.104Z,9.41
2019-03-21T03:43:50.182Z,9.38
2019-03-21T03:46:22.727Z,9.35
2019-03-21T03:48:54.563Z,9.33
2019-03-21T03:51:26.719Z,9.35
2019-03-21T03:53:59.900Z,9.34
2019-03-21T03:56:32.134Z,9.31
2019-03-21T03:59:04.690Z,9.31
2019-03-21T04:01:36.962Z,9.31
2019-03-21T04:04:09.176Z,9.26
2019-03-21T04:06:41.356Z,9.28
2019-03-21T04:09:13.159Z,9.29
2019-03-21T04:11:45.189Z,9.26
2019-03-21T04:14:17.525Z,9.26
2019-03-21T04:16:49.759Z,9.30
2019-03-21T04:19:22.010Z,9.26
2019-03-21T04:21:53.979Z,9.20
2019-03-21T04:24:25.832Z,9.27
2019-03-21T04:26:58.072Z,9.28
2019-03-21T04:29:30.287Z,9.27
2019-03-21T04:32:02.486Z,9.26
2019-03-21T04:34:34.472Z,9.25
2019-03-21T04:37:06.638Z,9.24
2019-03-21T04:39:38.896Z,9.24
2019-03-21T04:42:11.312Z,9.22
2019-03-21T04:44:44.491Z,9.19
2019-03-21T04:47:16.719Z,9.21
2019-03-21T04:49:50.074Z,9.22
2019-03-21T04:52:22.462Z,9.21
2019-03-21T04:54:54.738Z,9.17
2019-03-21T04:57:27.080Z,9.19
2019-03-21T05:00:00.049Z,9.20
2019-03-21T05:02:32.206Z,9.22
2019-03-21T05:05:04.201Z,9.18
2019-03-21T05:07:36.420Z,9.21
2019-03-21T05:10:10.075Z,9.23
2019-03-21T05:12:42.283Z,9.26
2019-03-21T05:15:16.782Z,9.24
2019-03-21T05:17:49.633Z,9.24
2019-03-21T05:20:23.985Z,9.19
2019-03-21T05:22:56.260Z,9.14
2019-03-21T05:25:28.533Z,9.20
2019-03-21T05:28:00.444Z,9.17
2019-03-21T05:30:35.803Z,9.17
2019-03-21T05:33:07.621Z,9.18
2019-03-21T05:35:39.862Z,9.20
2019-03-21T05:38:11.953Z,9.25
2019-03-21T05:40:44.098Z,9.23
2019-03-21T05:43:19.091Z,9.26
2019-03-21T05:45:51.259Z,9.31
2019-03-21T05:48:23.583Z,9.35
2019-03-21T05:50:55.699Z,9.37
2019-03-21T05:53:27.896Z,9.42
2019-03-21T05:56:00.293Z,9.39
2019-03-21T05:58:32.652Z,9.45
2019-03-21T06:01:04.931Z,9.50
2019-03-21T06:03:49.998Z,9.41
2019-03-21T06:06:33.506Z,9.45
2019-03-21T06:09:08.465Z,9.48
2019-03-21T06:11:41.804Z,9.63
2019-03-21T06:14:13.859Z,9.76
2019-03-21T06:16:45.981Z,9.73
2019-03-21T06:20:06.943Z,9.84
2019-03-21T06:23:03.759Z,10.04
2019-03-21T06:25:56.937Z,9.95
2019-03-21T06:28:28.853Z,9.95
2019-03-21T06:31:00.958Z,9.99
2019-03-21T06:33:32.841Z,10.07
2019-03-21T06:36:05.143Z,10.13
2019-03-21T06:38:37.042Z,10.17
2019-03-21T06:41:09.326Z,10.14
2019-03-21T06:43:41.306Z,10.06
2019-03-21T06:46:13.495Z,10.17
2019-03-21T06:48:45.877Z,10.21
2019-03-21T06:51:18.844Z,10.16
2019-03-21T06:53:50.903Z,10.08
2019-03-21T06:56:23.162Z,10.23
2019-03-21T06:58:55.336Z,10.42
2019-03-21T07:01:27.378Z,10.43
2019-03-21T07:04:06.929Z,10.60
2019-03-21T07:06:33.152Z,10.45
2019-03-21T07:09:07.055Z,10.47
2019-03-21T07:11:38.959Z,10.55
2019-03-21T07:14:10.927Z,10.62
2019-03-21T07:16:42.773Z,11.14
2019-03-21T07:19:14.603Z,11.11
2019-03-21T07:21:46.510Z,12.77
2019-03-21T07:24:18.651Z,13.02
2019-03-21T07:26:50.833Z,13.75
2019-03-21T07:29:23.084Z,13.23
2019-03-21T07:31:55.153Z,12.57
2019-03-21T07:34:29.224Z,12.64
2019-03-21T07:37:01.180Z,12.73
2019-03-21T07:39:33.174Z,12.62
2019-03-21T07:42:05.422Z,12.66
2019-03-21T07:44:37.575Z,13.15
2019-03-21T07:47:13.019Z,12.77
2019-03-21T07:49:43.227Z,12.98
2019-03-21T07:52:15.248Z,12.69
2019-03-21T07:54:47.446Z,12.41
2019-03-21T07:57:19.298Z,12.54
2019-03-21T07:59:51.419Z,14.54
2019-03-21T08:02:24.539Z,13.63
2019-03-21T08:04:56.631Z,12.89
2019-03-21T08:07:28.910Z,12.20
2019-03-21T08:10:01.140Z,12.34
2019-03-21T08:12:34.311Z,13.23
2019-03-21T08:15:07.687Z,14.15
2019-03-21T08:17:39.800Z,13.97
2019-03-21T08:20:13.195Z,16.14
2019-03-21T08:22:45.619Z,17.94
2019-03-21T08:25:17.679Z,17.84
2019-03-21T08:27:51.803Z,18.09
2019-03-21T08:30:32.841Z,18.11
2019-03-21T08:33:05.600Z,17.06
2019-03-21T08:35:37.931Z,15.39
2019-03-21T08:38:09.986Z,14.11
2019-03-21T08:40:42.732Z,14.71
2019-03-21T08:43:14.993Z,14.52
2019-03-21T08:45:47.110Z,17.18
2019-03-21T08:48:19.453Z,17.99
2019-03-21T08:50:51.380Z,16.72
2019-03-21T08:53:23.409Z,15.64
2019-03-21T08:55:55.581Z,18.11
2019-03-21T08:58:27.525Z,19.15
2019-03-21T09:00:59.831Z,18.81
2019-03-21T09:03:31.970Z,19.22
2019-03-21T09:06:04.167Z,18.30
2019-03-21T09:08:36.213Z,18.69
2019-03-21T09:11:08.920Z,18.64
2019-03-21T09:13:41.107Z,18.42
2019-03-21T09:16:13.184Z,15.93
2019-03-21T09:18:45.294Z,15.88
2019-03-21T09:21:19.907Z,15.28
2019-03-21T09:23:50.936Z,16.03
2019-03-21T09:26:23.271Z,16.52
2019-03-21T09:28:55.394Z,17.00
2019-03-21T09:31:29.049Z,17.31
2019-03-21T09:34:01.046Z,16.78
2019-03-21T09:36:32.975Z,17.08
2019-03-21T09:39:07.845Z,16.25
2019-03-21T09:41:40.611Z,16.12
2019-03-21T09:44:12.694Z,16.50
2019-03-21T09:46:50.722Z,16.70
2019-03-21T09:49:18.613Z,16.74
2019-03-21T09:51:50.614Z,16.38
2019-03-21T09:54:22.868Z,17.48
2019-03-21T09:56:54.831Z,17.64
2019-03-21T09:59:27.319Z,17.32
2019-03-21T10:01:59.614Z,16.38
2019-03-21T10:04:31.799Z,17.40
2019-03-21T10:07:03.983Z,17.17
2019-03-21T10:09:36.107Z,17.64
2019-03-21T10:12:08.361Z,18.61
2019-03-21T10:14:40.367Z,17.81
2019-03-21T10:17:12.515Z,18.35
2019-03-21T10:19:44.760Z,18.98
2019-03-21T10:22:16.743Z,18.72
2019-03-21T10:24:49.056Z,18.11
2019-03-21T10:27:21.195Z,18.98
2019-03-21T10:29:53.276Z,18.17
2019-03-21T10:32:25.313Z,17.31
2019-03-21T10:34:57.586Z,16.94
2019-03-21T10:37:29.766Z,17.33
2019-03-21T10:40:01.960Z,17.85
2019-03-21T10:42:33.809Z,18.24
2019-03-21T10:45:06.384Z,17.98
2019-03-21T10:47:38.748Z,18.28
2019-03-21T10:50:14.562Z,17.91
2019-03-21T10:52:47.116Z,19.52
2019-03-21T10:55:19.179Z,18.87
2019-03-21T10:57:51.801Z,18.38
2019-03-21T11:00:23.898Z,18.81
2019-03-21T11:02:56.071Z,18.86
2019-03-21T11:05:29.380Z,19.57
2019-03-21T11:08:01.541Z,19.56
2019-03-21T11:10:33.544Z,19.39
2019-03-21T11:13:06.490Z,18.99
2019-03-21T11:15:38.499Z,19.54
2019-03-21T11:18:10.691Z,19.03
2019-03-21T11:20:42.805Z,19.54
2019-03-21T11:23:15.038Z,19.85
2019-03-21T11:25:47.056Z,19.18
2019-03-21T11:28:19.473Z,18.88
2019-03-21T11:30:53.203Z,19.33
2019-03-21T11:33:25.741Z,19.11
2019-03-21T11:35:57.926Z,20.02
2019-03-21T11:38:30.046Z,19.61
2019-03-21T11:41:03.592Z,19.72
2019-03-21T11:43:35.840Z,19.49
2019-03-21T11:46:07.936Z,18.78
2019-03-21T11:48:40.225Z,18.75
2019-03-21T11:51:12.078Z,18.42
2019-03-21T11:53:44.003Z,18.59
2019-03-21T11:56:16.377Z,18.40
2019-03-21T11:58:48.557Z,18.44
2019-03-21T12:01:20.779Z,18.34
2019-03-21T12:03:52.754Z,17.52
2019-03-21T12:06:24.911Z,17.77
2019-03-21T12:08:57.214Z,17.57
2019-03-21T12:11:29.065Z,17.56
2019-03-21T12:14:01.314Z,17.49
2019-03-21T12:16:33.678Z,17.01
2019-03-21T12:19:06.009Z,17.16
2019-03-21T12:21:38.130Z,17.04
2019-03-21T12:24:11.169Z,16.82
2019-03-21T12:26:43.498Z,16.87
2019-03-21T12:29:15.791Z,16.85
2019-03-21T12:31:47.791Z,16.86
2019-03-21T12:34:19.760Z,16.93
2019-03-21T12:36:51.883Z,16.64
2019-03-21T12:39:23.955Z,17.01
2019-03-21T12:41:56.113Z,17.17
2019-03-21T12:44:28.109Z,16.80
2019-03-21T12:47:00.218Z,16.65
2019-03-21T12:49:33.562Z,16.30
2019-03-21T12:52:05.966Z,16.47
2019-03-21T12:54:38.320Z,16.36
2019-03-21T12:57:10.386Z,16.74
2019-03-21T12:59:43.758Z,16.67
2019-03-21T13:02:15.646Z,16.79
2019-03-21T13:04:47.610Z,16.74
2019-03-21T13:07:20.454Z,16.66
2019-03-21T13:09:52.557Z,16.62
2019-03-21T13:12:24.736Z,16.31
2019-03-21T13:14:56.986Z,16.10
2019-03-21T13:17:29.222Z,16.05
2019-03-21T13:20:01.288Z,16.17
2019-03-21T13:22:33.488Z,15.99
2019-03-21T13:25:05.603Z,16.05
2019-03-21T13:27:37.667Z,15.81
2019-03-21T13:30:10.852Z,15.88
2019-03-21T13:32:43.085Z,16.14
2019-03-21T13:35:15.338Z,16.27
2019-03-21T13:37:47.991Z,16.24
2019-03-21T13:40:19.946Z,16.16
2019-03-21T13:42:53.204Z,15.98
2019-03-21T13:45:25.240Z,16.02
2019-03-21T13:47:57.448Z,16.04
2019-03-21T13:50:29.806Z,16.08
2019-03-21T13:53:05.195Z,16.06
2019-03-21T13:55:35.516Z,16.18
2019-03-21T13:58:07.464Z,15.84
2019-03-21T14:00:41.066Z,15.91
2019-03-21T14:03:24.373Z,15.84
2019-03-21T14:05:47.100Z,15.73
2019-03-21T14:08:19.064Z,15.43
2019-03-21T14:10:51.302Z,15.55
2019-03-21T14:13:23.239Z,15.73
2019-03-21T14:15:57.802Z,15.22
2019-03-21T14:18:29.059Z,15.34
2019-03-21T14:21:01.062Z,15.37
2019-03-21T14:23:42.736Z,15.32
2019-03-21T14:26:08.341Z,15.27
2019-03-21T14:28:40.391Z,15.22
2019-03-21T14:31:12.642Z,15.23
2019-03-21T14:33:44.746Z,15.36
2019-03-21T14:36:16.907Z,15.36
2019-03-21T14:38:48.991Z,15.33
2019-03-21T14:41:21.148Z,15.37
2019-03-21T14:43:53.242Z,15.16
2019-03-21T14:46:25.279Z,15.13
2019-03-21T14:48:59.744Z,15.05
2019-03-21T14:51:31.972Z,15.05
2019-03-21T14:54:04.061Z,15.17
2019-03-21T14:56:36.120Z,15.04
2019-03-21T14:59:08.087Z,15.08
2019-03-21T15:01:40.877Z,15.08
2019-03-21T15:04:13.048Z,15.34
2019-03-21T15:06:45.144Z,15.36
2019-03-21T15:09:17.108Z,15.36
2019-03-21T15:11:49.348Z,15.29
2019-03-21T15:14:21.583Z,15.30
2019-03-21T15:16:53.881Z,15.18
2019-03-21T15:19:26.342Z,15.03
2019-03-21T15:21:58.523Z,14.96
2019-03-21T15:24:30.468Z,15.00
2019-03-21T15:27:02.510Z,15.00
2019-03-21T15:29:35.506Z,15.05
2019-03-21T15:32:08.347Z,15.07
2019-03-21T15:34:40.318Z,14.91
2019-03-21T15:37:12.556Z,14.66
2019-03-21T15:39:44.796Z,14.90
2019-03-21T15:42:16.877Z,14.72
2019-03-21T15:44:51.687Z,14.57
2019-03-21T15:47:23.804Z,14.57
2019-03-21T15:49:56.017Z,14.66
2019-03-21T15:52:28.503Z,14.52
2019-03-21T15:55:00.579Z,14.46
2019-03-21T15:57:34.554Z,14.39
2019-03-21T16:00:08.495Z,14.42
2019-03-21T16:02:40.583Z,14.36
2019-03-21T16:05:12.712Z,14.38
2019-03-21T16:07:44.667Z,14.31
2019-03-21T16:10:16.816Z,14.22
2019-03-21T16:12:49.244Z,14.17
2019-03-21T16:15:21.971Z,14.12
2019-03-21T16:17:54.539Z,14.20
2019-03-21T16:20:26.597Z,14.22
2019-03-21T16:23:00.335Z,14.22
2019-03-21T16:25:32.755Z,14.20
2019-03-21T16:28:04.840Z,14.00
2019-03-21T16:30:37.200Z,13.99
2019-03-21T16:33:09.569Z,13.97
2019-03-21T16:35:41.497Z,13.99
2019-03-21T16:38:13.468Z,13.98
2019-03-21T16:40:46.278Z,13.79
2019-03-21T16:43:18.458Z,13.78
2019-03-21T16:45:50.461Z,13.79
2019-03-21T16:48:23.205Z,13.77
2019-03-21T16:50:56.598Z,13.81
2019-03-21T16:53:28.870Z,13.81
2019-03-21T16:56:02.600Z,13.75
2019-03-21T16:58:34.767Z,13.67
2019-03-21T17:01:06.762Z,13.68
2019-03-21T17:03:39.223Z,13.70
2019-03-21T17:06:11.519Z,13.70
2019-03-21T17:08:43.490Z,13.67
2019-03-21T17:11:15.538Z,13.63
2019-03-21T17:13:47.593Z,13.61
2019-03-21T17:16:19.491Z,13.61
2019-03-21T17:18:51.532Z,13.56
2019-03-21T17:21:23.565Z,13.54
2019-03-21T17:23:55.746Z,13.53
2019-03-21T17:26:27.892Z,13.48
2019-03-21T17:28:59.934Z,13.53
2019-03-21T17:31:32.306Z,13.48
2019-03-21T17:34:04.713Z,13.51
2019-03-21T17:36:37.741Z,13.44
2019-03-21T17:39:10.471Z,13.34
2019-03-21T17:41:43.405Z,13.32
2019-03-21T17:44:15.665Z,13.24
2019-03-21T17:46:47.752Z,13.26
2019-03-21T17:49:19.606Z,13.25
2019-03-21T17:51:51.495Z,13.22
2019-03-21T17:54:23.636Z,13.19
2019-03-21T17:56:55.965Z,13.08
2019-03-21T17:59:28.370Z,13.04
2019-03-21T18:02:00.465Z,13.04
2019-03-21T18:04:35.667Z,12.98
2019-03-21T18:07:06.629Z,12.97
2019-03-21T18:09:39.003Z,12.95
2019-03-21T18:12:11.336Z,12.95
2019-03-21T18:14:43.725Z,12.87
2019-03-21T18:17:15.878Z,12.86
2019-03-21T18:19:48.105Z,12.81
2019-03-21T18:22:20.143Z,12.80
2019-03-21T18:24:53.999Z,12.73
2019-03-21T18:27:26.447Z,12.67
2019-03-21T18:29:58.857Z,12.67
2019-03-21T18:32:30.979Z,12.68
2019-03-21T18:35:03.378Z,12.65
2019-03-21T18:37:35.685Z,12.68
2019-03-21T18:40:10.092Z,12.71
2019-03-21T18:42:42.437Z,12.67
2019-03-21T18:45:14.945Z,12.57
2019-03-21T18:47:47.853Z,12.46
2019-03-21T18:50:19.925Z,12.51
2019-03-21T18:52:52.571Z,12.40
2019-03-21T18:55:24.785Z,12.46
2019-03-21T18:57:56.915Z,12.51
2019-03-21T19:00:29.204Z,12.48
2019-03-21T19:03:01.721Z,12.49
2019-03-21T19:05:33.919Z,12.43
2019-03-21T19:08:07.072Z,12.42
2019-03-21T19:10:39.396Z,12.45
2019-03-21T19:13:11.672Z,12.31
2019-03-21T19:15:43.496Z,12.40
2019-03-21T19:18:15.844Z,12.34
2019-03-21T19:20:47.931Z,12.31
2019-03-21T19:23:20.454Z,12.33
2019-03-21T19:25:52.588Z,12.24
2019-03-21T19:28:24.739Z,12.32
2019-03-21T19:30:56.828Z,12.24
2019-03-21T19:33:28.960Z,12.26
2019-03-21T19:36:01.203Z,12.23
2019-03-21T19:38:33.808Z,12.22
2019-03-21T19:41:06.348Z,12.25
2019-03-21T19:43:38.508Z,12.25
2019-03-21T19:46:10.608Z,12.26
2019-03-21T19:48:50.213Z,12.18
2019-03-21T19:51:16.672Z,12.19
2019-03-21T19:53:48.886Z,12.20
2019-03-21T19:56:21.044Z,12.12
2019-03-21T19:58:53.239Z,12.18
2019-03-21T20:01:25.347Z,12.18
2019-03-21T20:03:57.335Z,12.15
2019-03-21T20:06:33.938Z,12.05
2019-03-21T20:09:07.676Z,12.14
2019-03-21T20:11:41.636Z,12.07
2019-03-21T20:14:14.003Z,12.10
2019-03-21T20:16:46.291Z,12.06
2019-03-21T20:19:19.240Z,12.10
2019-03-21T20:21:51.379Z,12.14
2019-03-21T20:24:23.552Z,12.12
2019-03-21T20:26:55.923Z,12.09
2019-03-21T20:29:28.997Z,12.09
2019-03-21T20:32:01.156Z,12.11
2019-03-21T20:34:33.849Z,12.13
2019-03-21T20:37:05.939Z,12.12
2019-03-21T20:39:38.100Z,12.08
2019-03-21T20:42:10.199Z,12.08
2019-03-21T20:44:42.244Z,12.12
2019-03-21T20:47:14.335Z,12.21
2019-03-21T20:49:46.282Z,12.21
2019-03-21T20:52:18.368Z,12.13
2019-03-21T20:54:50.797Z,12.17
2019-03-21T20:57:23.329Z,12.22
2019-03-21T20:59:55.523Z,12.22
2019-03-21T21:02:27.677Z,12.21
2019-03-21T21:04:59.996Z,12.22
2019-03-21T21:07:32.199Z,12.22
2019-03-21T21:10:04.790Z,12.22
2019-03-21T21:12:36.991Z,12.22
2019-03-21T21:15:09.348Z,12.24
2019-03-21T21:17:43.307Z,12.21
2019-03-21T21:20:16.928Z,12.21
2019-03-21T21:22:48.991Z,12.17
2019-03-21T21:25:20.986Z,12.15
2019-03-21T21:27:54.584Z,12.21
2019-03-21T21:30:26.755Z,12.18
2019-03-21T21:32:59.252Z,12.10
2019-03-21T21:35:31.351Z,12.15
2019-03-21T21:38:05.391Z,12.16
2019-03-21T21:40:37.455Z,12.16
2019-03-21T21:43:09.723Z,12.18
2019-03-21T21:45:41.828Z,12.19
2019-03-21T21:48:13.712Z,12.18
2019-03-21T21:50:46.753Z,12.18
2019-03-21T21:53:18.957Z,12.17
2019-03-21T21:55:51.090Z,12.15
2019-03-21T21:58:23.207Z,12.16
2019-03-21T22:00:55.311Z,12.07
2019-03-21T22:03:27.609Z,12.13
2019-03-21T22:06:00.251Z,12.14
2019-03-21T22:08:32.428Z,12.10
2019-03-21T22:11:05.817Z,12.09
2019-03-21T22:13:38.412Z,12.09
2019-03-21T22:16:10.735Z,12.08
2019-03-21T22:18:43.099Z,12.10
2019-03-21T22:21:15.559Z,12.10
2019-03-21T22:23:48.057Z,12.08
2019-03-21T22:26:29.180Z,12.00
2019-03-21T22:28:53.991Z,12.01
2019-03-21T22:31:25.929Z,11.97
2019-03-21T22:33:58.298Z,12.02
2019-03-21T22:36:30.796Z,11.99
2019-03-21T22:39:03.150Z,11.98
2019-03-21T22:41:37.014Z,11.97
2019-03-21T22:44:09.705Z,11.98
2019-03-21T22:46:42.466Z,11.95
2019-03-21T22:49:14.529Z,11.95
2019-03-21T22:51:46.533Z,11.93
2019-03-21T22:54:18.516Z,11.91
2019-03-21T22:56:50.763Z,11.88
2019-03-21T22:59:23.118Z,11.84
2019-03-21T23:01:55.282Z,11.83
2019-03-21T23:04:27.704Z,11.87
2019-03-21T23:06:59.661Z,11.86
2019-03-21T23:09:32.254Z,11.86
2019-03-21T23:12:04.722Z,11.86
2019-03-21T23:14:36.789Z,11.88
2019-03-21T23:17:08.827Z,11.84
2019-03-21T23:19:40.820Z,11.88
2019-03-21T23:22:12.912Z,11.91
2019-03-21T23:24:44.794Z,11.88
2019-03-21T23:27:16.943Z,11.89
2019-03-21T23:29:49.339Z,11.89
2019-03-21T23:32:21.437Z,11.86
2019-03-21T23:34:53.584Z,11.84
2019-03-21T23:37:26.253Z,11.87
2019-03-21T23:39:58.602Z,11.86
2019-03-21T23:42:30.956Z,11.83
2019-03-21T23:45:03.175Z,11.82
2019-03-21T23:47:35.373Z,11.77
2019-03-21T23:50:08.271Z,11.82
2019-03-21T23:52:40.525Z,11.75
2019-03-21T23:55:12.939Z,11.75
2019-03-21T23:57:45.733Z,11.76
